METAR Data
IDs: Format: Raw Decoded Include TAF

Data at: 2152 UTC 08 Aug 2020

KSDL 082053Z 25008KT 10SM CLR 42/05 A2989 RMK AO2 SLP088 T04220050 58018
KSDL 081953Z 28006KT 10SM CLR 41/03 A2991 RMK AO2 SLP094 T04060033
KSDL 081853Z 33005KT 10SM CLR 40/07 A2992 RMK AO2 SLP101 T04000072
KSDL 081753Z 00000KT 10SM CLR 38/06 A2994 RMK AO2 SLP107 T03830061 10383 20294 58003
KSDL 081653Z 00000KT 10SM CLR 36/08 A2995 RMK AO2 SLP110 T03610083
KSDL 081553Z 18004KT 10SM CLR 34/09 A2996 RMK AO2 SLP112 T03390089
KSDL 081453Z 15003KT 10SM CLR 32/11 A2995 RMK AO2 SLP111 T03220106 53015
KSDL 081353Z 00000KT 10SM CLR 31/10 A2994 RMK AO2 SLP106 T03060100
KSDL 081253Z 00000KT 10SM CLR 30/10 A2992 RMK AO2 SLP100 T03000100
KSDL 081153Z AUTO 00000KT 10SM CLR 31/09 A2990 RMK AO2 SLP094 T03110094 10356 20306 53006
KSDL 081053Z AUTO 05003KT 10SM CLR 31/10 A2989 RMK AO2 SLP091 T03110100
KSDL 080953Z AUTO 00000KT 10SM CLR 33/09 A2989 RMK AO2 SLP089 T03280094
KSDL 080853Z AUTO 00000KT 10SM CLR 32/10 A2989 RMK AO2 SLP088 T03220100 51004
KSDL 080753Z AUTO 00000KT 10SM CLR 34/10 A2988 RMK AO2 SLP087 T03440100
KSDL 080653Z AUTO 00000KT 10SM CLR 34/11 A2988 RMK AO2 SLP088 T03390111 404170267
KSDL 080553Z AUTO 32003KT 10SM CLR 36/11 A2987 RMK AO2 SLP083 T03560106 10411 20350 51013
KSDL 080453Z AUTO 00000KT 10SM CLR 37/11 A2986 RMK AO2 SLP081 T03670106
KSDL 080353Z 00000KT 10SM CLR 38/11 A2985 RMK AO2 SLP075 T03780106
KSDL 080253Z 00000KT 10SM CLR 39/09 A2983 RMK AO2 SLP070 T03890094 55000
KSDL 080153Z 00000KT 10SM CLR 39/09 A2983 RMK AO2 SLP069 T03940094
KSDL 080053Z 27006KT 10SM CLR 41/09 A2982 RMK AO2 SLP068 T04060089
KSDL 072353Z 24009KT 10SM CLR 41/08 A2983 RMK AO2 SLP071 T04060078 10417 20361 56018
KSDL 072253Z 21007KT 10SM CLR 41/07 A2985 RMK AO2 SLP075 T04060072
KSDL 072153Z 25005KT 10SM CLR 40/08 A2987 RMK AO2 SLP083 T04000083
KSDL 072053Z VRB05KT 10SM CLR 41/09 A2989 RMK AO2 SLP089 T04060089 58015
KSDL 071953Z 00000KT 10SM CLR 38/09 A2990 RMK AO2 SLP095 T03780089
KSDL 071853Z 27004KT 10SM CLR 37/09 A2992 RMK AO2 SLP100 T03720094
KSDL 071753Z 33005KT 10SM CLR 37/09 A2993 RMK AO2 SLP104 T03670094 10367 20267 50004
KSDL 071653Z VRB04KT 10SM CLR 35/09 A2994 RMK AO2 SLP107 T03500089
KSDL 071553Z 35005KT 10SM CLR 34/08 A2993 RMK AO2 SLP105 T03390083
KSDL 071453Z 00000KT 10SM CLR 33/06 A2992 RMK AO2 SLP099 T03280061 51022
KSDL 071353Z 00000KT 10SM CLR 30/06 A2990 RMK AO2 SLP092 T03000056
KSDL 071253Z AUTO 00000KT 10SM CLR 28/06 A2988 RMK AO2 SLP086 T02780056
KSDL 071153Z AUTO 00000KT 10SM CLR 27/07 A2985 RMK AO2 SLP077 T02670072 10344 20267 53009
KSDL 071053Z AUTO 00000KT 10SM CLR 29/07 A2983 RMK AO2 SLP070 T02890067
KSDL 070953Z AUTO 00000KT 10SM CLR 28/07 A2982 RMK AO2 SLP067 T02830072